createdAt,value
2022-09-16T00:01:53.249Z,97244.53
2022-09-16T00:04:42.093Z,97238.84
2022-09-16T00:07:39.398Z,97236.84
2022-09-16T00:10:27.646Z,97247.06
2022-09-16T00:13:26.379Z,97254.63
2022-09-16T00:16:19.775Z,97248.84
2022-09-16T00:19:08.126Z,97257.50
2022-09-16T00:22:02.818Z,97256.13
2022-09-16T00:24:51.208Z,97256.78
2022-09-16T00:27:39.542Z,97266.22
2022-09-16T00:30:29.238Z,97267.75
2022-09-16T00:33:17.825Z,97268.09
2022-09-16T00:36:08.317Z,97267.28
2022-09-16T00:38:57.118Z,97277.34
2022-09-16T00:41:45.517Z,97277.94
2022-09-16T00:44:58.375Z,97271.56
2022-09-16T00:47:52.124Z,97280.59
2022-09-16T00:50:45.186Z,97284.13
2022-09-16T00:53:43.026Z,97264.84
2022-09-16T00:56:35.720Z,97273.56
2022-09-16T00:59:28.760Z,97266.38
2022-09-16T01:02:20.246Z,97271.03
2022-09-16T01:05:13.587Z,97278.78
2022-09-16T01:08:02.414Z,97271.47
2022-09-16T01:10:59.848Z,97273.56
2022-09-16T01:13:50.072Z,97282.28
2022-09-16T01:16:58.228Z,97284.03
2022-09-16T01:20:04.360Z,97275.06
2022-09-16T01:23:12.444Z,97283.03
2022-09-16T01:26:17.626Z,97290.56
2022-09-16T01:29:27.331Z,97294.00
2022-09-16T01:32:25.551Z,97287.19
2022-09-16T01:35:24.798Z,97298.25
2022-09-16T01:38:26.825Z,97290.97
2022-09-16T01:41:23.231Z,97288.63
2022-09-16T01:44:20.678Z,97282.09
2022-09-16T01:47:18.649Z,97279.47
2022-09-16T01:50:18.125Z,97284.59
2022-09-16T01:53:14.139Z,97282.84
2022-09-16T01:56:09.941Z,97288.72
2022-09-16T01:59:06.872Z,97291.19
2022-09-16T02:01:58.402Z,97293.41
2022-09-16T02:04:51.687Z,97288.50
2022-09-16T02:07:45.395Z,97276.03
2022-09-16T02:10:40.759Z,97283.63
2022-09-16T02:13:33.687Z,97283.19
2022-09-16T02:16:30.084Z,97283.63
2022-09-16T02:19:24.465Z,97293.22
2022-09-16T02:22:15.203Z,97279.28
2022-09-16T02:25:08.742Z,97282.69
2022-09-16T02:27:59.048Z,97281.00
2022-09-16T02:30:57.478Z,97291.59
2022-09-16T02:33:48.988Z,97294.16
2022-09-16T02:36:40.661Z,97286.34
2022-09-16T02:39:32.161Z,97278.97
2022-09-16T02:42:22.346Z,97287.31
2022-09-16T02:45:20.778Z,97289.47
2022-09-16T02:48:15.386Z,97281.06
2022-09-16T02:51:16.708Z,97290.94
2022-09-16T02:54:13.387Z,97292.63
2022-09-16T02:57:01.707Z,97292.47
2022-09-16T02:59:51.888Z,97292.47
2022-09-16T03:02:40.977Z,97298.63
2022-09-16T03:05:29.914Z,97295.56
2022-09-16T03:08:18.213Z,97296.88
2022-09-16T03:11:12.242Z,97305.16
2022-09-16T03:14:13.575Z,97295.41
2022-09-16T03:17:16.009Z,97289.88
2022-09-16T03:20:12.177Z,97294.84
2022-09-16T03:23:10.864Z,97287.94
2022-09-16T03:26:04.650Z,97299.59
2022-09-16T03:29:04.499Z,97289.69
2022-09-16T03:31:59.122Z,97307.03
2022-09-16T03:34:54.259Z,97299.31
2022-09-16T03:37:45.423Z,97295.06
2022-09-16T03:40:34.865Z,97288.50
2022-09-16T03:43:32.298Z,97289.47
2022-09-16T03:46:20.667Z,97287.19
2022-09-16T03:49:18.225Z,97293.72
2022-09-16T03:52:08.554Z,97293.97
2022-09-16T03:55:03.110Z,97294.31
2022-09-16T03:57:51.449Z,97289.34
2022-09-16T04:00:50.853Z,97287.28
2022-09-16T04:03:39.150Z,97292.44
2022-09-16T04:06:27.524Z,97294.50
2022-09-16T04:09:17.220Z,97290.75
2022-09-16T04:12:07.815Z,97290.94
2022-09-16T04:14:56.353Z,97298.31
2022-09-16T04:17:45.020Z,97307.03
2022-09-16T04:20:34.838Z,97303.31
2022-09-16T04:23:24.947Z,97313.41
2022-09-16T04:26:14.643Z,97326.34
2022-09-16T04:29:09.350Z,97330.88
2022-09-16T04:31:57.680Z,97316.50
2022-09-16T04:34:51.905Z,97331.78
2022-09-16T04:37:40.219Z,97336.84
2022-09-16T04:40:28.716Z,97327.28
2022-09-16T04:43:27.768Z,97327.88
2022-09-16T04:46:16.090Z,97333.47
2022-09-16T04:49:04.936Z,97337.94
2022-09-16T04:51:59.650Z,97331.78
2022-09-16T04:54:47.987Z,97336.50
2022-09-16T04:57:42.753Z,97333.72
2022-09-16T05:00:32.342Z,97318.91
2022-09-16T05:03:27.010Z,97334.03
2022-09-16T05:06:20.650Z,97339.00
2022-09-16T05:09:10.999Z,97340.34
2022-09-16T05:11:59.380Z,97338.38
2022-09-16T05:14:47.950Z,97341.47
2022-09-16T05:17:50.971Z,97342.03
2022-09-16T05:20:40.011Z,97346.91
2022-09-16T05:23:28.715Z,97346.34
2022-09-16T05:26:19.469Z,97346.09
2022-09-16T05:29:10.270Z,97340.47
2022-09-16T05:31:59.136Z,97345.63
2022-09-16T05:34:50.617Z,97346.38
2022-09-16T05:37:38.932Z,97338.19
2022-09-16T05:40:27.715Z,97337.22
2022-09-16T05:43:25.154Z,97351.91
2022-09-16T05:46:18.970Z,97343.91
2022-09-16T05:49:07.428Z,97345.72
2022-09-16T05:51:57.062Z,97348.41
2022-09-16T05:54:45.324Z,97349.16
2022-09-16T05:57:33.667Z,97345.34
2022-09-16T06:00:22.978Z,97348.03
2022-09-16T06:03:20.276Z,97345.28
2022-09-16T06:06:14.347Z,97337.53
2022-09-16T06:09:07.332Z,97326.72
2022-09-16T06:12:01.481Z,97332.16
2022-09-16T06:14:50.387Z,97324.81
2022-09-16T06:17:38.689Z,97324.25
2022-09-16T06:20:37.663Z,97323.94
2022-09-16T06:23:26.399Z,97339.63
2022-09-16T06:26:27.256Z,97326.22
2022-09-16T06:29:16.783Z,97329.81
2022-09-16T06:32:05.182Z,97326.69
2022-09-16T06:34:53.574Z,97327.09
2022-09-16T06:37:41.910Z,97330.50
2022-09-16T07:48:16.417Z,97332.50
2022-09-16T07:51:07.679Z,97329.41
2022-09-16T07:53:59.414Z,97327.78
2022-09-16T07:56:47.814Z,97330.38
2022-09-16T07:59:45.069Z,97328.66
2022-09-16T08:02:33.412Z,97340.00
2022-09-16T08:05:32.459Z,97341.22
2022-09-16T08:08:20.803Z,97340.94
2022-09-16T08:11:18.093Z,97337.66
2022-09-16T08:14:06.373Z,97362.63
2022-09-16T08:17:03.545Z,97343.81
2022-09-16T08:19:51.950Z,97337.72
2022-09-16T08:22:51.955Z,97337.81
2022-09-16T08:25:43.450Z,97337.97
2022-09-16T08:28:57.640Z,97371.31
2022-09-16T08:31:51.030Z,97361.91
2022-09-16T08:34:49.328Z,97357.22
2022-09-16T08:37:37.648Z,97359.59
2022-09-16T08:40:34.426Z,97342.66
2022-09-16T08:43:30.384Z,97353.28
2022-09-16T08:46:25.670Z,97357.81
2022-09-16T08:49:22.731Z,97361.03
2022-09-16T08:52:14.451Z,97362.13
2022-09-16T08:55:08.013Z,97368.22
2022-09-16T08:58:06.188Z,97379.97
2022-09-16T09:00:58.414Z,97376.66
2022-09-16T09:03:49.115Z,97361.69
2022-09-16T09:06:58.130Z,97357.53
2022-09-16T09:09:56.102Z,97371.50
2022-09-16T09:12:50.555Z,97375.59
2022-09-16T09:15:46.070Z,97371.00
2022-09-16T09:18:42.057Z,97368.69
2022-09-16T09:21:40.292Z,97357.63
2022-09-16T09:24:42.208Z,97364.03
2022-09-16T09:27:38.305Z,97371.38
2022-09-16T09:30:27.957Z,97352.69
2022-09-16T09:36:53.767Z,97376.75
2022-09-16T09:39:53.541Z,97364.16
2022-09-16T09:42:50.034Z,97359.56
2022-09-16T09:45:41.868Z,97351.97
2022-09-16T09:48:36.734Z,97356.03
2022-09-16T09:51:29.695Z,97348.28
2022-09-16T09:54:27.879Z,97348.22
2022-09-16T09:57:23.170Z,97346.50
2022-09-16T10:00:16.273Z,97355.59
2022-09-16T10:03:12.283Z,97354.38
2022-09-16T10:06:02.219Z,97362.22
2022-09-16T10:08:52.746Z,97351.13
2022-09-16T10:11:48.827Z,97345.16
2022-09-16T10:14:39.166Z,97350.13
2022-09-16T10:17:34.799Z,97354.97
2022-09-16T10:20:28.416Z,97345.84
2022-09-16T10:23:29.691Z,97338.78
2022-09-16T10:26:21.509Z,97341.22
2022-09-16T10:29:17.837Z,97329.72
2022-09-16T10:32:10.798Z,97315.75
2022-09-16T10:34:59.232Z,97335.50
2022-09-16T10:37:53.108Z,97334.50
2022-09-16T10:40:52.956Z,97326.22
2022-09-16T10:43:49.170Z,97329.47
2022-09-16T10:46:38.033Z,97329.50
2022-09-16T10:49:34.008Z,97340.06
2022-09-16T10:52:25.228Z,97340.81
2022-09-16T10:55:24.210Z,97345.06
2022-09-16T10:58:18.250Z,97331.47
2022-09-16T11:01:21.233Z,97322.06
2022-09-16T11:04:40.252Z,97331.38
2022-09-16T11:07:46.650Z,97316.69
2022-09-16T11:10:45.379Z,97325.72
2022-09-16T11:13:44.410Z,97333.81
2022-09-16T11:16:50.198Z,97327.66
2022-09-16T11:19:49.522Z,97323.38
2022-09-16T11:22:46.688Z,97329.75
2022-09-16T11:25:43.112Z,97315.66
2022-09-16T11:29:10.967Z,97309.91
2022-09-16T11:32:11.160Z,97303.34
2022-09-16T11:35:24.115Z,97309.94
2022-09-16T11:38:22.778Z,97304.63
2022-09-16T11:41:25.022Z,97330.75
2022-09-16T11:44:36.926Z,97319.44
2022-09-16T11:47:43.236Z,97322.75
2022-09-16T11:50:42.478Z,97319.63
2022-09-16T11:53:51.672Z,97315.72
2022-09-16T11:56:46.038Z,97317.31
2022-09-16T11:59:41.148Z,97316.50
2022-09-16T12:02:37.388Z,97329.03
2022-09-16T12:05:31.464Z,97310.34
2022-09-16T12:08:23.961Z,97307.56
2022-09-16T12:11:21.256Z,97298.94
2022-09-16T12:14:18.290Z,97306.38
2022-09-16T12:17:13.360Z,97318.47
2022-09-16T12:20:07.105Z,97355.47
2022-09-16T12:23:00.251Z,97349.84
2022-09-16T12:26:02.575Z,97343.22
2022-09-16T12:29:01.337Z,97374.59
2022-09-16T12:31:54.978Z,97381.53
2022-09-16T12:34:49.405Z,97385.88
2022-09-16T12:37:45.011Z,97350.47
2022-09-16T12:40:45.750Z,97362.28
2022-09-16T12:44:06.464Z,97350.31
2022-09-16T12:47:45.787Z,97346.41
2022-09-16T12:50:56.248Z,97345.41
2022-09-16T12:53:55.381Z,97330.94
2022-09-16T12:57:15.201Z,97303.13
2022-09-16T13:00:13.020Z,97304.56
2022-09-16T13:03:08.257Z,97313.34
2022-09-16T13:06:01.298Z,97308.88
2022-09-16T13:08:49.970Z,97301.69
2022-09-16T13:14:53.322Z,97289.97
2022-09-16T13:17:41.837Z,97289.88
2022-09-16T13:20:39.543Z,97292.53
2022-09-16T13:23:34.097Z,97288.06
2022-09-16T13:26:22.478Z,97299.66
2022-09-16T13:29:30.947Z,97293.75
2022-09-16T13:32:37.782Z,97290.72
2022-09-16T13:35:40.956Z,97282.97
2022-09-16T13:38:40.209Z,97286.28
2022-09-16T13:41:37.130Z,97278.53
2022-09-16T13:44:31.848Z,97283.06
2022-09-16T13:47:34.399Z,97279.31
2022-09-16T13:50:26.526Z,97278.94
2022-09-16T13:53:25.674Z,97278.13
2022-09-16T13:56:37.322Z,97268.19
2022-09-16T13:59:39.648Z,97268.25
2022-09-16T14:02:40.801Z,97271.13
2022-09-16T14:05:44.976Z,97269.41
2022-09-16T14:08:43.468Z,97269.00
2022-09-16T14:11:42.732Z,97258.44
2022-09-16T14:14:50.105Z,97260.44
2022-09-16T14:17:42.048Z,97267.03
2022-09-16T14:20:30.788Z,97258.53
2022-09-16T14:23:27.494Z,97246.88
2022-09-16T14:26:18.919Z,97252.56
2022-09-16T14:29:12.454Z,97242.72
2022-09-16T14:32:01.117Z,97237.78
2022-09-16T14:34:52.831Z,97236.28
2022-09-16T14:37:41.438Z,97243.00
2022-09-16T14:40:30.655Z,97240.19
2022-09-16T14:43:21.766Z,97240.78
2022-09-16T14:46:11.488Z,97232.19
2022-09-16T14:49:00.013Z,97236.13
2022-09-16T14:51:58.403Z,97232.22
2022-09-16T14:54:46.976Z,97230.13
2022-09-16T14:57:35.475Z,97228.94
2022-09-16T15:00:25.617Z,97224.69
2022-09-16T15:03:26.762Z,97236.16
2022-09-16T15:06:19.310Z,97238.50
2022-09-16T15:09:17.894Z,97227.25
2022-09-16T15:12:07.118Z,97227.56
2022-09-16T15:14:55.457Z,97230.78
2022-09-16T15:17:43.911Z,97235.38
2022-09-16T15:20:37.799Z,97233.00
2022-09-16T15:23:28.351Z,97229.34
2022-09-16T15:26:19.604Z,97222.88
2022-09-16T15:32:18.320Z,97216.69
2022-09-16T15:35:20.749Z,97220.53
2022-09-16T15:38:13.919Z,97223.47
2022-09-16T15:41:04.282Z,97206.78
2022-09-16T15:44:01.099Z,97211.06
2022-09-16T15:46:50.674Z,97233.00
2022-09-16T15:49:41.210Z,97214.06
2022-09-16T15:52:29.844Z,97220.09
2022-09-16T15:55:31.049Z,97231.06
2022-09-16T15:58:39.691Z,97236.03
2022-09-16T16:01:50.986Z,97219.31
2022-09-16T16:04:41.629Z,97206.78
2022-09-16T16:07:42.138Z,97219.31
2022-09-16T16:10:34.696Z,97213.03
2022-09-16T16:13:23.044Z,97230.66
2022-09-16T16:16:13.026Z,97232.03
2022-09-16T16:19:01.991Z,97233.09
2022-09-16T16:22:00.379Z,97243.25
2022-09-16T16:24:48.645Z,97241.16
2022-09-16T16:27:47.702Z,97244.09
2022-09-16T16:30:36.090Z,97225.56
2022-09-16T16:33:24.374Z,97227.56
2022-09-16T16:36:20.510Z,97225.06
2022-09-16T16:39:08.874Z,97230.03
2022-09-16T16:42:05.095Z,97226.69
2022-09-16T16:44:56.559Z,97229.38
2022-09-16T16:47:46.381Z,97220.81
2022-09-16T16:50:34.816Z,97217.56
2022-09-16T16:53:23.130Z,97217.16
2022-09-16T16:56:17.377Z,97227.63
2022-09-16T16:59:05.726Z,97228.19
2022-09-16T17:02:01.279Z,97223.25
2022-09-16T17:04:49.878Z,97231.88
2022-09-16T17:07:44.199Z,97227.31
2022-09-16T17:10:32.518Z,97228.44
2022-09-16T17:13:26.709Z,97228.44
2022-09-16T17:16:17.695Z,97224.53
2022-09-16T17:19:07.431Z,97227.59
2022-09-16T17:22:04.526Z,97228.94
2022-09-16T17:24:52.858Z,97236.38
2022-09-16T17:27:41.152Z,97231.88
2022-09-16T17:30:29.500Z,97224.47
2022-09-16T17:33:26.635Z,97219.72
2022-09-16T17:36:18.484Z,97221.25
2022-09-16T17:39:09.086Z,97224.59
2022-09-16T17:41:58.099Z,97227.84
2022-09-16T17:44:55.194Z,97228.88
2022-09-16T17:47:43.580Z,97225.53
2022-09-16T17:50:31.911Z,97230.97
2022-09-16T17:53:30.777Z,97223.25
2022-09-16T17:56:19.369Z,97224.25
2022-09-16T17:59:19.231Z,97231.59
2022-09-16T18:02:09.324Z,97225.50
2022-09-16T18:05:07.219Z,97234.19
2022-09-16T18:07:55.510Z,97231.59
2022-09-16T18:10:55.039Z,97243.03
2022-09-16T18:13:44.322Z,97239.22
2022-09-16T18:16:33.257Z,97240.78
2022-09-16T18:19:27.695Z,97248.53
2022-09-16T18:22:16.099Z,97245.44
2022-09-16T18:25:05.298Z,97246.09
2022-09-16T18:27:54.988Z,97249.25
2022-09-16T18:30:44.221Z,97256.69
2022-09-16T18:33:33.061Z,97267.00
2022-09-16T18:36:25.371Z,97261.13
2022-09-16T18:39:15.230Z,97247.31
2022-09-16T18:42:03.597Z,97250.72
2022-09-16T18:44:53.207Z,97243.44
2022-09-16T18:47:42.900Z,97249.16
2022-09-16T18:50:31.310Z,97249.44
2022-09-16T18:53:19.801Z,97254.69
2022-09-16T18:56:12.616Z,97255.97
2022-09-16T18:59:21.420Z,97256.19
2022-09-16T19:02:14.615Z,97252.31
2022-09-16T19:05:03.091Z,97257.88
2022-09-16T19:07:57.529Z,97257.00
2022-09-16T19:10:45.824Z,97255.78
2022-09-16T19:13:34.868Z,97251.00
2022-09-16T19:16:23.351Z,97248.59
2022-09-16T19:19:15.619Z,97249.81
2022-09-16T19:22:06.167Z,97259.16
2022-09-16T19:24:54.767Z,97255.16
2022-09-16T19:27:51.853Z,97254.97
2022-09-16T19:30:40.242Z,97263.69
2022-09-16T19:33:38.087Z,97253.78
2022-09-16T19:36:29.548Z,97253.84
2022-09-16T19:39:18.011Z,97253.69
2022-09-16T19:42:12.217Z,97259.81
2022-09-16T19:45:00.581Z,97244.19
2022-09-16T19:47:48.930Z,97259.50
2022-09-16T19:50:37.230Z,97245.91
2022-09-16T19:53:27.415Z,97242.44
2022-09-16T19:56:26.819Z,97246.28
2022-09-16T19:59:15.147Z,97250.22
2022-09-16T20:02:12.594Z,97248.34
2022-09-16T20:05:00.857Z,97243.13
2022-09-16T20:07:57.922Z,97249.28
2022-09-16T20:10:47.573Z,97249.72
2022-09-16T20:13:49.477Z,97245.94
2022-09-16T20:16:39.538Z,97251.19
2022-09-16T20:19:36.794Z,97247.78
2022-09-16T20:22:25.453Z,97243.53
2022-09-16T20:25:23.758Z,97253.09
2022-09-16T20:28:13.674Z,97255.03
2022-09-16T20:31:12.980Z,97265.53
2022-09-16T20:34:01.908Z,97255.59
2022-09-16T20:36:59.107Z,97259.66
2022-09-16T20:39:47.411Z,97260.09
2022-09-16T20:42:44.974Z,97262.28
2022-09-16T20:45:36.864Z,97262.19
2022-09-16T20:48:25.211Z,97250.38
2022-09-16T20:51:21.465Z,97247.41
2022-09-16T20:54:11.170Z,97251.06
2022-09-16T20:57:06.004Z,97248.09
2022-09-16T20:59:54.317Z,97246.72
2022-09-16T21:02:54.073Z,97246.91
2022-09-16T21:05:42.343Z,97250.16
2022-09-16T21:08:40.293Z,97258.25
2022-09-16T21:11:30.254Z,97255.47
2022-09-16T21:14:27.543Z,97258.31
2022-09-16T21:17:19.874Z,97263.34
2022-09-16T21:20:10.488Z,97268.75
2022-09-16T21:22:58.919Z,97266.38
2022-09-16T21:25:53.144Z,97271.56
2022-09-16T21:28:42.188Z,97281.06
2022-09-16T21:31:38.128Z,97274.16
2022-09-16T21:34:26.975Z,97287.19
2022-09-16T21:37:22.776Z,97282.22
2022-09-16T21:40:12.936Z,97285.25
2022-09-16T21:43:07.468Z,97288.06
2022-09-16T21:45:55.972Z,97295.28
2022-09-16T21:48:44.546Z,97291.13
2022-09-16T21:51:37.329Z,97298.13
2022-09-16T21:54:28.086Z,97295.63
2022-09-16T21:57:16.441Z,97292.97
2022-09-16T22:00:05.646Z,97292.75
2022-09-16T22:02:57.754Z,97291.47
2022-09-16T22:05:52.132Z,97290.13
2022-09-16T22:08:40.522Z,97281.59
2022-09-16T22:11:32.025Z,97288.59
2022-09-16T22:14:20.588Z,97290.09
2022-09-16T22:17:08.982Z,97280.28
2022-09-16T22:19:57.273Z,97287.69
2022-09-16T22:22:52.003Z,97286.59
2022-09-16T22:25:40.342Z,97284.78
2022-09-16T22:28:36.829Z,97289.53
2022-09-16T22:31:27.244Z,97286.53
2022-09-16T22:34:15.979Z,97288.78
2022-09-16T22:37:13.366Z,97288.78
2022-09-16T22:40:01.724Z,97284.81
2022-09-16T22:42:59.438Z,97286.88
2022-09-16T22:45:49.851Z,97294.03
2022-09-16T22:48:38.545Z,97287.50
2022-09-16T22:51:33.074Z,97295.09
2022-09-16T22:54:21.883Z,97297.34
2022-09-16T22:57:20.146Z,97289.06
2022-09-16T23:00:09.733Z,97289.06
2022-09-16T23:03:05.509Z,97292.56
2022-09-16T23:05:58.122Z,97302.53
2022-09-16T23:08:53.701Z,97296.78
2022-09-16T23:11:42.317Z,97287.22
2022-09-16T23:14:37.117Z,97290.97
2022-09-16T23:17:25.591Z,97293.72
2022-09-16T23:20:21.313Z,97290.22
2022-09-16T23:23:09.903Z,97285.88
2022-09-16T23:26:05.077Z,97286.66
2022-09-16T23:28:54.693Z,97273.75
2022-09-16T23:31:49.195Z,97280.16
2022-09-16T23:34:37.545Z,97281.22
2022-09-16T23:37:33.044Z,97281.34
2022-09-16T23:40:21.470Z,97296.16
2022-09-16T23:43:15.873Z,97278.88
2022-09-16T23:46:04.468Z,97293.69
2022-09-16T23:48:53.286Z,97285.03
2022-09-16T23:51:50.327Z,97291.22
2022-09-16T23:54:40.030Z,97290.69
2022-09-16T23:57:37.355Z,97293.44
